createdAt,value
2017-12-24T00:00:21.571Z,0.00
2017-12-24T00:01:21.996Z,0.00
2017-12-24T00:02:22.419Z,0.00
2017-12-24T00:03:22.847Z,0.00
2017-12-24T00:04:23.273Z,0.00
2017-12-24T00:05:23.741Z,0.00
2017-12-24T00:06:24.130Z,0.00
2017-12-24T00:07:24.552Z,0.00
2017-12-24T00:08:24.977Z,0.00
2017-12-24T00:09:25.402Z,0.00
2017-12-24T00:10:25.823Z,0.00
2017-12-24T00:11:26.254Z,0.00
2017-12-24T00:12:26.680Z,0.00
2017-12-24T00:13:27.098Z,0.00
2017-12-24T00:14:27.532Z,0.00
2017-12-24T00:15:27.955Z,0.00
2017-12-24T00:16:28.374Z,0.00
2017-12-24T00:17:28.803Z,0.00
2017-12-24T00:18:29.234Z,0.00
2017-12-24T00:19:29.653Z,0.00
2017-12-24T00:20:30.083Z,0.00
2017-12-24T00:21:30.505Z,0.00
2017-12-24T00:22:30.931Z,0.00
2017-12-24T00:23:31.354Z,0.00
2017-12-24T00:24:31.781Z,0.00
2017-12-24T00:25:32.217Z,0.00
2017-12-24T00:26:32.638Z,0.00
2017-12-24T00:27:33.058Z,0.00
2017-12-24T00:28:33.483Z,0.00
2017-12-24T00:29:33.906Z,0.00
2017-12-24T00:30:34.334Z,0.00
2017-12-24T00:31:34.763Z,0.00
2017-12-24T00:32:35.191Z,0.00
2017-12-24T00:33:35.611Z,0.00
2017-12-24T00:34:36.036Z,0.00
2017-12-24T00:35:36.466Z,0.00
2017-12-24T00:36:36.891Z,0.00
2017-12-24T00:37:37.346Z,0.00
2017-12-24T00:38:37.738Z,0.00
2017-12-24T00:39:38.164Z,0.00
2017-12-24T00:40:38.594Z,0.00
2017-12-24T00:41:39.048Z,0.00
2017-12-24T00:42:39.440Z,0.00
2017-12-24T00:43:39.872Z,0.00
2017-12-24T00:44:40.292Z,0.00
2017-12-24T00:45:40.724Z,0.00
2017-12-24T00:46:41.143Z,0.00
2017-12-24T00:47:41.577Z,0.00
2017-12-24T00:48:41.996Z,0.00
2017-12-24T00:49:42.418Z,0.00
2017-12-24T00:50:42.843Z,0.00
2017-12-24T00:51:43.273Z,0.00
2017-12-24T00:52:43.693Z,0.00
2017-12-24T00:53:44.122Z,0.00
2017-12-24T00:54:44.556Z,0.00
2017-12-24T00:55:44.973Z,0.00
2017-12-24T00:56:45.399Z,0.00
2017-12-24T00:57:45.828Z,0.00
2017-12-24T00:58:46.251Z,0.00
2017-12-24T00:59:46.678Z,0.00
2017-12-24T01:00:47.108Z,0.00
2017-12-24T01:01:47.524Z,0.00
2017-12-24T01:02:47.954Z,0.00
2017-12-24T01:03:48.378Z,0.00
2017-12-24T01:04:48.806Z,0.00
2017-12-24T01:05:49.228Z,0.00
2017-12-24T01:06:49.656Z,0.00
2017-12-24T01:07:50.132Z,0.00
2017-12-24T01:08:50.515Z,0.00
2017-12-24T01:09:50.933Z,0.00
2017-12-24T01:10:51.361Z,0.00
2017-12-24T01:11:51.787Z,0.00
2017-12-24T01:12:52.208Z,0.00
2017-12-24T01:13:52.639Z,0.00
2017-12-24T01:14:53.059Z,0.00
2017-12-24T01:15:53.488Z,0.00
2017-12-24T01:16:53.911Z,0.00
2017-12-24T01:17:54.342Z,0.00
2017-12-24T01:18:54.765Z,0.00
2017-12-24T01:19:55.194Z,0.00
2017-12-24T01:20:55.615Z,0.00
2017-12-24T01:21:56.044Z,0.00
2017-12-24T01:22:56.467Z,0.00
2017-12-24T01:23:56.894Z,0.00
2017-12-24T01:24:57.322Z,0.00
2017-12-24T01:25:57.744Z,0.00
2017-12-24T01:26:58.172Z,0.00
2017-12-24T01:27:58.596Z,0.00
2017-12-24T01:28:59.025Z,0.00
2017-12-24T01:29:59.447Z,0.00
2017-12-24T01:30:59.892Z,0.00
2017-12-24T01:32:00.304Z,0.00
2017-12-24T01:33:00.743Z,0.00
2017-12-24T01:34:01.151Z,0.00
2017-12-24T01:35:01.581Z,0.00
2017-12-24T01:36:02.007Z,0.00
2017-12-24T01:37:02.428Z,0.00
2017-12-24T01:38:02.883Z,0.00
2017-12-24T01:39:03.277Z,0.00
2017-12-24T01:40:03.706Z,0.00
2017-12-24T01:41:04.135Z,0.00
2017-12-24T01:42:04.558Z,0.00
2017-12-24T01:43:05.006Z,0.00
2017-12-24T01:44:05.420Z,0.00
2017-12-24T01:45:05.836Z,0.00
2017-12-24T01:46:06.264Z,0.00
2017-12-24T01:47:06.688Z,0.00
2017-12-24T01:48:07.113Z,0.00
2017-12-24T01:49:07.537Z,0.00
2017-12-24T01:50:07.978Z,0.00
2017-12-24T01:51:08.393Z,0.00
2017-12-24T01:52:08.817Z,0.00
2017-12-24T01:53:09.239Z,0.00
2017-12-24T01:54:09.666Z,0.00
2017-12-24T01:55:10.101Z,0.00
2017-12-24T01:56:10.521Z,0.00
2017-12-24T01:57:10.947Z,0.00
2017-12-24T01:58:11.370Z,0.00
2017-12-24T01:59:11.796Z,0.00
2017-12-24T02:00:12.222Z,0.00
2017-12-24T02:01:12.647Z,0.00
2017-12-24T02:02:13.077Z,0.00
2017-12-24T02:03:13.498Z,0.00
2017-12-24T02:04:13.923Z,0.00
2017-12-24T02:05:14.353Z,0.00
2017-12-24T02:06:14.775Z,0.00
2017-12-24T02:07:15.202Z,0.00
2017-12-24T02:08:15.627Z,0.00
2017-12-24T02:09:16.108Z,0.00
2017-12-24T02:10:16.486Z,0.00
2017-12-24T02:11:16.903Z,0.00
2017-12-24T02:12:17.329Z,0.00
2017-12-24T02:13:17.752Z,0.00
2017-12-24T02:14:18.178Z,0.00
2017-12-24T02:15:18.606Z,0.00
2017-12-24T02:16:19.032Z,0.00
2017-12-24T02:17:19.458Z,0.00
2017-12-24T02:18:19.882Z,0.00
2017-12-24T02:19:20.308Z,0.00
2017-12-24T02:20:20.734Z,0.00
2017-12-24T02:21:21.158Z,0.00
2017-12-24T02:22:21.591Z,0.00
2017-12-24T02:23:22.017Z,0.00
2017-12-24T02:24:22.434Z,0.00
2017-12-24T02:25:22.867Z,0.00
2017-12-24T02:26:23.289Z,0.00
2017-12-24T02:27:23.717Z,0.00
2017-12-24T02:28:24.141Z,0.00
2017-12-24T02:29:24.570Z,0.00
2017-12-24T02:30:24.993Z,0.00
2017-12-24T02:31:25.421Z,0.00
2017-12-24T02:32:25.853Z,0.00
2017-12-24T02:33:26.268Z,0.00
2017-12-24T02:34:26.693Z,0.00
2017-12-24T02:35:27.118Z,0.00
2017-12-24T02:36:27.556Z,0.00
2017-12-24T02:37:27.971Z,0.00
2017-12-24T02:38:28.392Z,0.00
2017-12-24T02:39:28.822Z,0.00
2017-12-24T02:40:29.254Z,0.00
2017-12-24T02:41:29.670Z,0.00
2017-12-24T02:42:30.099Z,0.00
2017-12-24T02:43:30.527Z,0.00
2017-12-24T02:44:30.953Z,0.00
2017-12-24T02:45:31.381Z,0.00
2017-12-24T02:46:31.799Z,0.00
2017-12-24T02:47:32.228Z,0.00
2017-12-24T02:48:32.654Z,0.00
2017-12-24T02:49:33.075Z,0.00
2017-12-24T02:50:33.520Z,0.00
2017-12-24T02:51:33.936Z,0.00
2017-12-24T02:52:34.358Z,0.00
2017-12-24T02:53:34.781Z,0.00
2017-12-24T02:54:35.211Z,0.00
2017-12-24T02:55:35.638Z,0.00
2017-12-24T02:56:36.057Z,0.00
2017-12-24T02:57:36.481Z,0.00
2017-12-24T02:58:36.913Z,0.00
2017-12-24T02:59:37.335Z,0.00
2017-12-24T03:00:37.764Z,0.00
2017-12-24T03:01:38.189Z,0.00
2017-12-24T03:02:38.629Z,0.00
2017-12-24T03:03:39.040Z,0.00
2017-12-24T03:04:39.463Z,0.00
2017-12-24T03:05:39.890Z,0.00
2017-12-24T03:06:40.319Z,0.00
2017-12-24T03:07:40.742Z,0.00
2017-12-24T03:08:41.165Z,0.00
2017-12-24T03:09:41.593Z,0.00
2017-12-24T03:10:42.018Z,0.00
2017-12-24T03:11:42.446Z,0.00
2017-12-24T03:12:42.869Z,0.00
2017-12-24T03:13:43.300Z,0.00
2017-12-24T03:14:43.721Z,0.00
2017-12-24T03:15:44.147Z,0.00
2017-12-24T03:16:44.571Z,0.00
2017-12-24T03:17:44.999Z,0.00
2017-12-24T03:18:45.428Z,0.00
2017-12-24T03:19:45.856Z,0.00
2017-12-24T03:20:46.281Z,0.00
2017-12-24T03:21:46.703Z,0.00
2017-12-24T03:22:47.131Z,0.00
2017-12-24T03:23:47.563Z,0.00
2017-12-24T03:24:47.981Z,0.00
2017-12-24T03:25:48.406Z,0.00
2017-12-24T03:26:48.833Z,0.00
2017-12-24T03:27:49.256Z,0.00
2017-12-24T03:28:49.685Z,0.00
2017-12-24T03:29:50.114Z,0.00
2017-12-24T03:30:50.536Z,0.00
2017-12-24T03:31:50.964Z,0.00
2017-12-24T03:32:51.390Z,0.00
2017-12-24T03:33:51.819Z,0.00
2017-12-24T03:34:52.242Z,0.00
2017-12-24T03:35:52.684Z,0.00
2017-12-24T03:36:53.102Z,0.00
2017-12-24T03:37:53.532Z,0.00
2017-12-24T03:38:53.950Z,0.00
2017-12-24T03:39:54.370Z,0.00
2017-12-24T03:40:54.798Z,0.00
2017-12-24T03:41:55.229Z,0.00
2017-12-24T03:42:55.650Z,0.00
2017-12-24T03:43:56.072Z,0.00
2017-12-24T03:44:56.501Z,0.00
2017-12-24T03:45:56.930Z,0.00
2017-12-24T03:46:57.350Z,0.00
2017-12-24T03:47:57.776Z,0.00
2017-12-24T03:48:58.208Z,0.00
2017-12-24T03:49:58.630Z,0.00
2017-12-24T03:50:59.058Z,0.00
2017-12-24T03:51:59.479Z,0.00
2017-12-24T03:52:59.910Z,0.00
2017-12-24T03:54:00.333Z,0.00
2017-12-24T03:55:00.755Z,0.00
2017-12-24T03:56:01.187Z,0.00
2017-12-24T03:57:01.613Z,0.00
2017-12-24T03:58:02.039Z,0.00
2017-12-24T03:59:02.459Z,0.00
2017-12-24T04:00:02.889Z,0.00
2017-12-24T04:01:03.315Z,0.00
2017-12-24T04:02:03.737Z,0.00
2017-12-24T04:03:04.175Z,0.00
2017-12-24T04:04:04.592Z,0.00
2017-12-24T04:05:05.017Z,0.00
2017-12-24T04:06:05.455Z,0.00
2017-12-24T04:07:05.881Z,0.00
2017-12-24T04:08:06.294Z,0.00
2017-12-24T04:09:06.729Z,0.00
2017-12-24T04:10:07.154Z,0.00
2017-12-24T04:11:07.580Z,0.00
2017-12-24T04:12:08.000Z,0.00
2017-12-24T04:13:08.426Z,0.00
2017-12-24T04:14:08.860Z,0.00
2017-12-24T04:15:09.277Z,0.00
2017-12-24T04:16:09.704Z,0.00
2017-12-24T04:17:10.129Z,0.00
2017-12-24T04:18:10.565Z,0.00
2017-12-24T04:19:10.990Z,0.00
2017-12-24T04:20:11.411Z,0.00
2017-12-24T04:21:11.835Z,0.00
2017-12-24T04:22:12.265Z,0.00
2017-12-24T04:23:12.693Z,0.00
2017-12-24T04:24:13.114Z,0.00
2017-12-24T04:25:13.543Z,0.00
2017-12-24T04:26:13.966Z,0.00
2017-12-24T04:27:14.395Z,0.00
2017-12-24T04:28:14.819Z,0.00
2017-12-24T04:29:15.250Z,0.00
2017-12-24T04:30:15.677Z,0.00
2017-12-24T04:31:16.100Z,0.00
2017-12-24T04:32:16.520Z,0.00
2017-12-24T04:33:16.948Z,0.00
2017-12-24T04:34:17.375Z,0.00
2017-12-24T04:35:17.796Z,0.00
2017-12-24T04:36:18.230Z,0.00
2017-12-24T04:37:18.649Z,0.00
2017-12-24T04:38:19.088Z,0.00
2017-12-24T04:39:19.504Z,0.00
2017-12-24T04:40:19.934Z,0.00
2017-12-24T04:41:20.354Z,0.00
2017-12-24T04:42:20.783Z,0.00
2017-12-24T04:43:21.213Z,0.00
2017-12-24T04:44:21.629Z,0.00
2017-12-24T04:45:22.103Z,0.00
2017-12-24T04:46:22.481Z,0.00
2017-12-24T04:47:22.912Z,0.00
2017-12-24T04:48:23.339Z,0.00
2017-12-24T04:49:23.762Z,0.00
2017-12-24T04:50:24.190Z,0.00
2017-12-24T04:51:24.617Z,0.00
2017-12-24T04:52:25.042Z,0.00
2017-12-24T04:53:25.462Z,0.00
2017-12-24T04:54:25.894Z,0.00
2017-12-24T04:55:26.316Z,0.00
2017-12-24T04:56:26.744Z,0.00
2017-12-24T04:57:27.166Z,0.00
2017-12-24T04:58:27.596Z,0.00
2017-12-24T04:59:28.024Z,0.00
2017-12-24T05:00:28.447Z,0.00
2017-12-24T05:01:28.899Z,0.00
2017-12-24T05:02:29.299Z,0.00
2017-12-24T05:03:29.726Z,0.00
2017-12-24T05:04:30.151Z,0.00
2017-12-24T05:05:30.581Z,0.00
2017-12-24T05:06:31.000Z,0.00
2017-12-24T05:07:31.424Z,0.00
2017-12-24T05:08:31.911Z,0.00
2017-12-24T05:09:32.280Z,0.00
2017-12-24T05:10:32.780Z,0.00
2017-12-24T05:11:33.120Z,0.00
2017-12-24T05:12:33.555Z,0.00
2017-12-24T05:13:33.990Z,0.00
2017-12-24T05:14:34.407Z,0.00
2017-12-24T05:15:34.835Z,0.00
2017-12-24T05:16:35.273Z,0.00
2017-12-24T05:17:35.696Z,0.00
2017-12-24T05:18:36.113Z,0.00
2017-12-24T05:19:36.541Z,0.00
2017-12-24T05:20:36.965Z,0.00
2017-12-24T05:21:37.392Z,0.00
2017-12-24T05:22:37.817Z,0.00
2017-12-24T05:23:38.242Z,0.00
2017-12-24T05:24:38.668Z,0.00
2017-12-24T05:25:39.098Z,0.00
2017-12-24T05:26:39.514Z,0.00
2017-12-24T05:27:39.945Z,0.00
2017-12-24T05:28:40.372Z,0.00
2017-12-24T05:29:40.797Z,0.00
2017-12-24T05:30:41.221Z,0.00
2017-12-24T05:31:41.646Z,0.00
2017-12-24T05:32:42.074Z,0.00
2017-12-24T05:33:42.501Z,0.00
2017-12-24T05:34:42.930Z,0.00
2017-12-24T05:35:43.355Z,0.00
2017-12-24T05:36:43.777Z,0.00
2017-12-24T05:37:44.237Z,0.00
2017-12-24T05:38:44.632Z,0.00
2017-12-24T05:39:45.059Z,0.00
2017-12-24T05:40:45.496Z,0.00
2017-12-24T05:41:45.914Z,0.00
2017-12-24T05:42:46.333Z,0.00
2017-12-24T05:43:46.760Z,0.00
2017-12-24T05:44:47.188Z,0.00
2017-12-24T05:45:47.613Z,0.00
2017-12-24T05:46:48.049Z,0.00
2017-12-24T05:47:48.464Z,0.00
2017-12-24T05:48:48.898Z,0.00
2017-12-24T05:49:49.321Z,0.00
2017-12-24T05:50:49.745Z,0.00
2017-12-24T05:51:50.169Z,0.00
2017-12-24T05:52:50.593Z,0.00
2017-12-24T05:53:51.018Z,0.00
2017-12-24T05:54:51.448Z,0.00
2017-12-24T05:55:51.872Z,0.00
2017-12-24T05:56:52.302Z,0.00
2017-12-24T05:57:52.725Z,0.00
2017-12-24T05:58:53.157Z,0.00
2017-12-24T05:59:53.579Z,0.00
2017-12-24T06:00:54.003Z,0.00
2017-12-24T06:01:54.426Z,0.00
2017-12-24T06:02:54.888Z,0.00
2017-12-24T06:03:55.281Z,0.00
2017-12-24T06:04:55.714Z,0.00
2017-12-24T06:05:56.136Z,0.00
2017-12-24T06:06:56.559Z,0.00
2017-12-24T06:07:56.991Z,0.00
2017-12-24T06:08:57.438Z,0.00
2017-12-24T06:09:57.846Z,0.00
2017-12-24T06:10:58.266Z,0.00
2017-12-24T06:11:58.689Z,0.00
2017-12-24T06:12:59.119Z,0.00
2017-12-24T06:13:59.545Z,0.00
2017-12-24T06:14:59.978Z,0.00
2017-12-24T06:16:00.395Z,0.00
2017-12-24T06:17:00.823Z,0.00
2017-12-24T06:18:01.245Z,0.00
2017-12-24T06:19:01.673Z,0.00
2017-12-24T06:20:02.112Z,0.00
2017-12-24T06:21:02.523Z,0.00
2017-12-24T06:22:02.950Z,0.00
2017-12-24T06:23:03.375Z,0.00
2017-12-24T06:24:03.801Z,0.00
2017-12-24T06:25:04.228Z,0.00
2017-12-24T06:26:04.653Z,0.00
2017-12-24T06:27:05.080Z,0.00
2017-12-24T06:28:05.514Z,0.00
2017-12-24T06:29:05.938Z,0.00
2017-12-24T06:30:06.358Z,0.00
2017-12-24T06:31:06.784Z,0.00
2017-12-24T06:32:07.209Z,0.00
2017-12-24T06:33:07.633Z,0.00
2017-12-24T06:34:08.060Z,0.00
2017-12-24T06:35:08.508Z,0.00
2017-12-24T06:36:08.921Z,0.00
2017-12-24T06:37:09.342Z,0.00
2017-12-24T06:38:09.763Z,0.00
2017-12-24T06:39:10.189Z,0.00
2017-12-24T06:40:10.627Z,0.00
2017-12-24T06:41:11.042Z,0.00
2017-12-24T06:42:11.505Z,0.00
2017-12-24T06:43:11.906Z,0.00
2017-12-24T06:44:12.318Z,0.00
2017-12-24T06:45:12.747Z,0.00
2017-12-24T06:46:13.166Z,0.00
2017-12-24T06:47:13.606Z,0.00
2017-12-24T06:48:14.023Z,0.00
2017-12-24T06:49:14.446Z,0.00
2017-12-24T06:50:14.869Z,0.00
2017-12-24T06:51:15.298Z,0.00
2017-12-24T06:52:15.724Z,0.00
2017-12-24T06:53:16.151Z,0.00
2017-12-24T06:54:16.577Z,0.00
2017-12-24T06:55:17.001Z,0.00
2017-12-24T06:56:17.428Z,0.00
2017-12-24T06:57:17.849Z,0.00
2017-12-24T06:58:18.276Z,0.00
2017-12-24T06:59:18.708Z,0.00
2017-12-24T07:00:19.140Z,0.00
2017-12-24T07:01:19.552Z,0.00
2017-12-24T07:02:19.980Z,0.00
2017-12-24T07:03:20.436Z,0.00
2017-12-24T07:04:20.832Z,0.00
2017-12-24T07:05:21.257Z,0.00
2017-12-24T07:06:21.683Z,0.00
2017-12-24T07:07:22.123Z,0.00
2017-12-24T07:08:22.533Z,0.00
2017-12-24T07:09:22.964Z,0.00
2017-12-24T07:10:23.476Z,0.00
2017-12-24T07:11:23.810Z,0.00
2017-12-24T07:12:24.239Z,0.00
2017-12-24T07:13:24.671Z,0.00
2017-12-24T07:14:25.087Z,0.00
2017-12-24T07:15:25.514Z,0.00
2017-12-24T07:16:25.948Z,0.00
2017-12-24T07:17:26.372Z,0.00
2017-12-24T07:18:26.790Z,0.00
2017-12-24T07:19:27.218Z,0.00
2017-12-24T07:20:27.638Z,0.00
2017-12-24T07:21:28.069Z,0.00
2017-12-24T07:22:28.495Z,0.00
2017-12-24T07:23:28.920Z,0.00
2017-12-24T07:24:29.352Z,0.00
2017-12-24T07:25:29.771Z,0.00
2017-12-24T07:26:30.197Z,0.00
2017-12-24T07:27:30.623Z,0.00
2017-12-24T07:28:31.058Z,0.00
2017-12-24T07:29:31.474Z,0.00
2017-12-24T07:30:31.921Z,0.00
2017-12-24T07:31:32.327Z,0.00
2017-12-24T07:32:32.755Z,0.00
2017-12-24T07:33:33.184Z,0.00
2017-12-24T07:34:33.599Z,0.00
2017-12-24T07:35:34.032Z,0.00
2017-12-24T07:36:34.456Z,0.00
2017-12-24T07:37:34.881Z,0.00
2017-12-24T07:38:35.305Z,0.00
2017-12-24T07:39:35.734Z,0.00
2017-12-24T07:40:36.158Z,5.63
2017-12-24T07:41:36.584Z,5.63
2017-12-24T07:42:37.032Z,5.63
2017-12-24T07:43:37.434Z,5.63
2017-12-24T07:44:37.860Z,5.63
2017-12-24T07:45:38.282Z,5.63
2017-12-24T07:46:38.713Z,5.63
2017-12-24T07:47:39.138Z,5.63
2017-12-24T07:48:39.561Z,5.63
2017-12-24T07:49:39.990Z,5.63
2017-12-24T07:50:40.416Z,5.63
2017-12-24T07:51:40.831Z,5.63
2017-12-24T07:52:41.266Z,5.63
2017-12-24T07:53:41.695Z,5.63
2017-12-24T07:54:42.117Z,5.63
2017-12-24T07:55:42.543Z,5.63
2017-12-24T07:56:42.966Z,5.63
2017-12-24T07:57:43.393Z,11.25
2017-12-24T07:58:43.824Z,11.25
2017-12-24T07:59:44.244Z,11.25
2017-12-24T08:00:44.687Z,11.25
2017-12-24T08:01:45.102Z,11.25
2017-12-24T08:02:45.520Z,11.25
2017-12-24T08:03:45.949Z,11.25
2017-12-24T08:04:46.373Z,11.25
2017-12-24T08:05:46.802Z,11.25
2017-12-24T08:06:47.226Z,11.25
2017-12-24T08:07:47.657Z,11.25
2017-12-24T08:08:48.084Z,11.25
2017-12-24T08:09:48.503Z,5.63
2017-12-24T08:10:48.930Z,5.63
2017-12-24T08:11:49.392Z,5.63
2017-12-24T08:12:49.787Z,5.63
2017-12-24T08:13:50.210Z,5.63
2017-12-24T08:14:50.636Z,5.63
2017-12-24T08:15:51.056Z,5.63
2017-12-24T08:16:51.486Z,5.63
2017-12-24T08:17:51.911Z,5.63
2017-12-24T08:18:52.345Z,11.25
2017-12-24T08:19:52.760Z,11.25
2017-12-24T08:20:53.191Z,11.25
2017-12-24T08:21:53.611Z,11.25
2017-12-24T08:22:54.091Z,11.25
2017-12-24T08:23:54.477Z,11.25
2017-12-24T08:24:54.908Z,11.25
2017-12-24T08:25:55.319Z,11.25
2017-12-24T08:26:55.740Z,16.88
2017-12-24T08:27:56.170Z,16.88
2017-12-24T08:28:56.596Z,16.88
2017-12-24T08:29:57.019Z,16.88
2017-12-24T08:30:57.443Z,16.88
2017-12-24T08:31:57.937Z,16.88
2017-12-24T08:32:58.306Z,16.88
2017-12-24T08:33:58.727Z,16.88
2017-12-24T08:34:59.175Z,16.88
2017-12-24T08:35:59.575Z,16.88
2017-12-24T08:36:59.999Z,16.88
2017-12-24T08:38:04.509Z,16.88
2017-12-24T08:39:00.887Z,16.88
2017-12-24T08:40:01.929Z,16.88
2017-12-24T08:41:01.717Z,16.88
2017-12-24T08:42:02.136Z,11.25
2017-12-24T08:43:02.558Z,11.25
2017-12-24T08:44:02.997Z,16.88
2017-12-24T08:45:03.458Z,16.88
2017-12-24T08:46:03.836Z,16.88
2017-12-24T08:47:04.287Z,16.88
2017-12-24T08:48:04.683Z,16.88
2017-12-24T08:49:05.114Z,16.88
2017-12-24T08:50:05.543Z,16.88
2017-12-24T08:51:05.966Z,16.88
2017-12-24T08:52:06.392Z,16.88
2017-12-24T08:53:06.821Z,16.88
2017-12-24T08:54:07.249Z,16.88
2017-12-24T08:55:07.668Z,16.88
2017-12-24T08:56:08.096Z,16.88
2017-12-24T08:57:08.519Z,16.88
2017-12-24T08:58:08.945Z,16.88
2017-12-24T08:59:09.372Z,22.50
2017-12-24T09:00:09.798Z,22.50
2017-12-24T09:01:10.224Z,22.50
2017-12-24T09:02:10.649Z,16.88
2017-12-24T09:03:11.077Z,16.88
2017-12-24T09:04:11.500Z,22.50
2017-12-24T09:05:11.928Z,22.50
2017-12-24T09:06:12.356Z,22.50
2017-12-24T09:07:12.780Z,28.13
2017-12-24T09:08:13.208Z,22.50
2017-12-24T09:09:13.629Z,22.50
2017-12-24T09:10:14.054Z,22.50
2017-12-24T09:11:14.482Z,22.50
2017-12-24T09:12:14.917Z,22.50
2017-12-24T09:13:15.400Z,22.50
2017-12-24T09:14:15.762Z,22.50
2017-12-24T09:15:16.220Z,22.50
2017-12-24T09:16:16.614Z,22.50
2017-12-24T09:17:17.044Z,22.50
2017-12-24T09:18:17.464Z,28.13
2017-12-24T09:19:17.889Z,28.13
2017-12-24T09:20:18.340Z,33.75
2017-12-24T09:21:18.768Z,28.13
2017-12-24T09:22:19.166Z,28.13
2017-12-24T09:23:19.592Z,28.13
2017-12-24T09:24:20.020Z,28.13
2017-12-24T09:25:20.443Z,28.13
2017-12-24T09:26:20.872Z,33.75
2017-12-24T09:27:21.340Z,33.75
2017-12-24T09:28:21.725Z,33.75
2017-12-24T09:29:22.164Z,33.75
2017-12-24T09:30:22.612Z,33.75
2017-12-24T09:31:23.000Z,39.38
2017-12-24T09:32:23.426Z,33.75
2017-12-24T09:33:23.869Z,33.75
2017-12-24T09:34:24.282Z,33.75
2017-12-24T09:35:24.704Z,33.75
2017-12-24T09:36:25.132Z,39.38
2017-12-24T09:37:25.562Z,39.38
2017-12-24T09:38:25.984Z,39.38
2017-12-24T09:39:26.410Z,33.75
2017-12-24T09:40:26.840Z,33.75
2017-12-24T09:41:27.265Z,28.13
2017-12-24T09:42:27.694Z,28.13
2017-12-24T09:43:28.118Z,28.13
2017-12-24T09:44:28.550Z,28.13
2017-12-24T09:45:28.971Z,22.50
2017-12-24T09:46:29.394Z,22.50
2017-12-24T09:47:29.819Z,28.13
2017-12-24T09:48:30.258Z,28.13
2017-12-24T09:49:30.673Z,28.13
2017-12-24T09:50:31.100Z,28.13
2017-12-24T09:51:31.526Z,22.50
2017-12-24T09:52:31.953Z,22.50
2017-12-24T09:53:32.381Z,22.50
2017-12-24T09:54:32.810Z,22.50
2017-12-24T09:55:33.232Z,22.50
2017-12-24T09:56:33.660Z,22.50
2017-12-24T09:57:34.082Z,22.50
2017-12-24T09:58:34.509Z,22.50
2017-12-24T09:59:34.934Z,28.13
2017-12-24T10:00:35.364Z,28.13
2017-12-24T10:01:35.787Z,22.50
2017-12-24T10:02:36.213Z,22.50
2017-12-24T10:03:36.639Z,28.13
2017-12-24T10:04:37.081Z,22.50
2017-12-24T10:05:37.491Z,22.50
2017-12-24T10:06:37.918Z,28.13
2017-12-24T10:07:38.346Z,28.13
2017-12-24T10:08:38.774Z,28.13
2017-12-24T10:09:39.197Z,28.13
2017-12-24T10:10:39.623Z,28.13
2017-12-24T10:11:40.050Z,28.13
2017-12-24T10:12:40.620Z,28.13
2017-12-24T10:13:40.890Z,28.13
2017-12-24T10:14:41.340Z,28.13
2017-12-24T10:15:41.773Z,28.13
2017-12-24T10:16:42.207Z,28.13
2017-12-24T10:17:42.605Z,28.13
2017-12-24T10:18:43.034Z,33.75
2017-12-24T10:19:43.487Z,28.13
2017-12-24T10:20:43.886Z,28.13
2017-12-24T10:21:44.310Z,33.75
2017-12-24T10:22:44.752Z,33.75
2017-12-24T10:23:45.175Z,33.75
2017-12-24T10:24:45.587Z,28.13
2017-12-24T10:25:46.014Z,28.13
2017-12-24T10:26:46.509Z,33.75
2017-12-24T10:27:46.861Z,33.75
2017-12-24T10:28:47.314Z,33.75
2017-12-24T10:29:47.724Z,33.75
2017-12-24T10:30:48.146Z,39.38
2017-12-24T10:31:48.592Z,45.00
2017-12-24T10:32:49.000Z,50.63
2017-12-24T10:33:49.421Z,50.63
2017-12-24T10:34:49.852Z,61.88
2017-12-24T10:35:50.277Z,45.00
2017-12-24T10:36:50.711Z,45.00
2017-12-24T10:37:51.130Z,39.38
2017-12-24T10:38:51.557Z,45.00
2017-12-24T10:39:51.981Z,45.00
2017-12-24T10:40:52.410Z,56.25
2017-12-24T10:41:52.834Z,50.63
2017-12-24T10:42:53.260Z,56.25
2017-12-24T10:43:53.690Z,56.25
2017-12-24T10:44:54.114Z,45.00
2017-12-24T10:45:54.541Z,39.38
2017-12-24T10:46:54.976Z,33.75
2017-12-24T10:47:55.394Z,39.38
2017-12-24T10:48:55.827Z,33.75
2017-12-24T10:49:56.260Z,33.75
2017-12-24T10:50:56.677Z,33.75
2017-12-24T10:51:57.098Z,28.13
2017-12-24T10:52:57.529Z,28.13
2017-12-24T10:53:57.958Z,28.13
2017-12-24T10:54:58.380Z,33.75
2017-12-24T10:55:58.815Z,33.75
2017-12-24T10:56:59.230Z,33.75
2017-12-24T10:57:59.671Z,33.75
2017-12-24T10:59:00.084Z,33.75
2017-12-24T11:00:00.516Z,28.13
2017-12-24T11:01:00.938Z,33.75
2017-12-24T11:02:01.362Z,28.13
2017-12-24T11:03:01.789Z,28.13
2017-12-24T11:04:02.214Z,28.13
2017-12-24T11:05:03.444Z,28.13
2017-12-24T11:06:03.069Z,33.75
2017-12-24T11:07:03.498Z,33.75
2017-12-24T11:08:03.919Z,33.75
2017-12-24T11:09:04.350Z,33.75
2017-12-24T11:10:04.782Z,28.13
2017-12-24T11:11:05.204Z,28.13
2017-12-24T11:12:05.647Z,28.13
2017-12-24T11:13:06.053Z,28.13
2017-12-24T11:14:06.478Z,28.13
2017-12-24T11:15:06.905Z,28.13
2017-12-24T11:16:07.331Z,28.13
2017-12-24T11:17:07.761Z,28.13
2017-12-24T11:18:08.182Z,28.13
2017-12-24T11:19:08.610Z,28.13
2017-12-24T11:20:09.040Z,22.50
2017-12-24T11:21:09.466Z,22.50
2017-12-24T11:22:09.895Z,28.13
2017-12-24T11:23:10.317Z,22.50
2017-12-24T11:24:10.741Z,22.50
2017-12-24T11:25:11.196Z,22.50
2017-12-24T11:26:11.595Z,22.50
2017-12-24T11:27:12.024Z,22.50
2017-12-24T11:28:12.446Z,22.50
2017-12-24T11:29:12.876Z,22.50
2017-12-24T11:30:13.299Z,22.50
2017-12-24T11:31:13.726Z,28.13
2017-12-24T11:32:14.165Z,28.13
2017-12-24T11:33:14.579Z,28.13
2017-12-24T11:34:15.007Z,28.13
2017-12-24T11:35:15.451Z,22.50
2017-12-24T11:36:15.871Z,22.50
2017-12-24T11:37:16.284Z,22.50
2017-12-24T11:38:16.716Z,28.13
2017-12-24T11:39:17.141Z,28.13
2017-12-24T11:40:17.593Z,22.50
2017-12-24T11:41:17.991Z,22.50
2017-12-24T11:42:18.415Z,22.50
2017-12-24T11:43:18.848Z,22.50
2017-12-24T11:44:19.328Z,22.50
2017-12-24T11:45:19.696Z,22.50
2017-12-24T11:46:20.142Z,22.50
2017-12-24T11:47:20.551Z,22.50
2017-12-24T11:48:20.976Z,22.50
2017-12-24T11:49:21.401Z,22.50
2017-12-24T11:50:21.823Z,22.50
2017-12-24T11:51:22.272Z,22.50
2017-12-24T11:52:22.691Z,22.50
2017-12-24T11:53:23.112Z,22.50
2017-12-24T11:54:23.532Z,22.50
2017-12-24T11:55:23.959Z,22.50
2017-12-24T11:56:24.384Z,22.50
2017-12-24T11:57:24.812Z,22.50
2017-12-24T11:58:25.238Z,28.13
2017-12-24T11:59:25.662Z,28.13
2017-12-24T12:00:26.202Z,28.13
2017-12-24T12:01:26.508Z,28.13
2017-12-24T12:02:26.941Z,22.50
2017-12-24T12:03:27.367Z,22.50
2017-12-24T12:04:27.796Z,22.50
2017-12-24T12:05:28.221Z,22.50
2017-12-24T12:06:28.644Z,22.50
2017-12-24T12:07:29.074Z,22.50
2017-12-24T12:08:29.500Z,28.13
2017-12-24T12:09:29.924Z,39.38
2017-12-24T12:10:30.349Z,39.38
2017-12-24T12:11:30.778Z,33.75
2017-12-24T12:12:31.201Z,33.75
2017-12-24T12:13:31.629Z,33.75
2017-12-24T12:14:32.055Z,33.75
2017-12-24T12:15:32.481Z,39.38
2017-12-24T12:16:32.907Z,39.38
2017-12-24T12:17:33.340Z,33.75
2017-12-24T12:18:33.759Z,33.75
2017-12-24T12:19:34.234Z,33.75
2017-12-24T12:20:34.612Z,33.75
2017-12-24T12:21:35.036Z,33.75
2017-12-24T12:22:35.461Z,33.75
2017-12-24T12:23:35.894Z,28.13
2017-12-24T12:24:36.328Z,22.50
2017-12-24T12:25:36.743Z,22.50
2017-12-24T12:26:37.171Z,28.13
2017-12-24T12:27:37.594Z,28.13
2017-12-24T12:28:38.025Z,22.50
2017-12-24T12:29:38.447Z,22.50
2017-12-24T12:30:38.870Z,28.13
2017-12-24T12:31:39.298Z,22.50
2017-12-24T12:32:39.734Z,28.13
2017-12-24T12:33:40.152Z,28.13
2017-12-24T12:34:40.589Z,22.50
2017-12-24T12:35:41.003Z,22.50
2017-12-24T12:36:41.435Z,16.88
2017-12-24T12:37:41.857Z,16.88
2017-12-24T12:38:42.287Z,16.88
2017-12-24T12:39:42.708Z,22.50
2017-12-24T12:40:43.132Z,22.50
2017-12-24T12:41:43.559Z,16.88
2017-12-24T12:42:44.005Z,28.13
2017-12-24T12:43:44.417Z,33.75
2017-12-24T12:44:44.839Z,39.38
2017-12-24T12:45:45.286Z,28.13
2017-12-24T12:46:45.686Z,28.13
2017-12-24T12:47:46.138Z,28.13
2017-12-24T12:48:46.544Z,22.50
2017-12-24T12:49:46.976Z,28.13
2017-12-24T12:50:47.396Z,28.13
2017-12-24T12:51:47.824Z,33.75
2017-12-24T12:52:48.254Z,33.75
2017-12-24T12:53:48.678Z,28.13
2017-12-24T12:54:49.102Z,28.13
2017-12-24T12:55:49.528Z,33.75
2017-12-24T12:56:49.959Z,28.13
2017-12-24T12:57:50.382Z,33.75
2017-12-24T12:58:50.808Z,33.75
2017-12-24T12:59:51.239Z,33.75
2017-12-24T13:00:51.658Z,28.13
2017-12-24T13:01:52.088Z,39.38
2017-12-24T13:02:52.510Z,39.38
2017-12-24T13:03:52.936Z,33.75
2017-12-24T13:04:53.364Z,33.75
2017-12-24T13:05:53.790Z,33.75
2017-12-24T13:06:54.219Z,28.13
2017-12-24T13:07:54.641Z,33.75
2017-12-24T13:08:55.068Z,28.13
2017-12-24T13:09:55.499Z,22.50
2017-12-24T13:10:55.928Z,16.88
2017-12-24T13:11:56.346Z,16.88
2017-12-24T13:12:56.772Z,16.88
2017-12-24T13:13:57.199Z,16.88